sensor_id;sensor_type;location;lat;lon;timestamp;temperature;humidity
57218;DHT22;43078;52.972;6.482;2023-02-11T00:00:16;7.10;99.90
57218;DHT22;43078;52.972;6.482;2023-02-11T00:02:42;7.10;99.90
57218;DHT22;43078;52.972;6.482;2023-02-11T00:05:08;7.10;99.90
57218;DHT22;43078;52.972;6.482;2023-02-11T00:07:34;7.10;99.90
57218;DHT22;43078;52.972;6.482;2023-02-11T00:10:05;7.10;99.90
57218;DHT22;43078;52.972;6.482;2023-02-11T00:12:35;7.10;99.90
57218;DHT22;43078;52.972;6.482;2023-02-11T00:15:01;7.10;99.90
57218;DHT22;43078;52.972;6.482;2023-02-11T00:17:27;7.10;99.90
57218;DHT22;43078;52.972;6.482;2023-02-11T00:19:53;7.10;99.90
57218;DHT22;43078;52.972;6.482;2023-02-11T00:22:18;7.10;99.90
57218;DHT22;43078;52.972;6.482;2023-02-11T00:24:44;7.10;99.90
57218;DHT22;43078;52.972;6.482;2023-02-11T00:27:10;7.10;99.90
57218;DHT22;43078;52.972;6.482;2023-02-11T00:29:36;7.10;99.90
57218;DHT22;43078;52.972;6.482;2023-02-11T00:32:02;7.10;99.90
57218;DHT22;43078;52.972;6.482;2023-02-11T00:34:34;7.10;99.90
57218;DHT22;43078;52.972;6.482;2023-02-11T00:37:00;7.10;99.90
57218;DHT22;43078;52.972;6.482;2023-02-11T00:39:25;7.10;99.90
57218;DHT22;43078;52.972;6.482;2023-02-11T00:41:54;7.00;99.90
57218;DHT22;43078;52.972;6.482;2023-02-11T00:44:19;7.00;99.90
57218;DHT22;43078;52.972;6.482;2023-02-11T00:46:45;7.00;99.90
57218;DHT22;43078;52.972;6.482;2023-02-11T00:49:11;7.00;99.90
57218;DHT22;43078;52.972;6.482;2023-02-11T00:51:37;7.00;99.90
57218;DHT22;43078;52.972;6.482;2023-02-11T00:54:03;7.00;99.90
57218;DHT22;43078;52.972;6.482;2023-02-11T00:56:31;7.00;99.90
57218;DHT22;43078;52.972;6.482;2023-02-11T00:58:57;7.00;99.90
57218;DHT22;43078;52.972;6.482;2023-02-11T01:01:23;7.00;99.90
57218;DHT22;43078;52.972;6.482;2023-02-11T01:03:49;7.00;99.90
57218;DHT22;43078;52.972;6.482;2023-02-11T01:06:15;6.90;99.90
57218;DHT22;43078;52.972;6.482;2023-02-11T01:08:41;6.90;99.90
57218;DHT22;43078;52.972;6.482;2023-02-11T01:11:12;6.90;99.90
57218;DHT22;43078;52.972;6.482;2023-02-11T01:13:38;6.90;99.90
57218;DHT22;43078;52.972;6.482;2023-02-11T01:16:08;6.80;99.90
57218;DHT22;43078;52.972;6.482;2023-02-11T01:18:35;6.80;99.90
57218;DHT22;43078;52.972;6.482;2023-02-11T01:21:00;6.80;99.90
57218;DHT22;43078;52.972;6.482;2023-02-11T01:23:26;6.80;99.90
57218;DHT22;43078;52.972;6.482;2023-02-11T01:25:52;6.80;99.90
57218;DHT22;43078;52.972;6.482;2023-02-11T01:28:24;6.70;99.90
57218;DHT22;43078;52.972;6.482;2023-02-11T01:30:50;6.70;99.90
57218;DHT22;43078;52.972;6.482;2023-02-11T01:33:16;6.70;99.90
57218;DHT22;43078;52.972;6.482;2023-02-11T01:35:41;6.70;99.90
57218;DHT22;43078;52.972;6.482;2023-02-11T01:38:16;6.70;99.90
57218;DHT22;43078;52.972;6.482;2023-02-11T01:40:50;6.70;99.90
57218;DHT22;43078;52.972;6.482;2023-02-11T01:43:18;6.70;99.90
57218;DHT22;43078;52.972;6.482;2023-02-11T01:48:16;6.60;99.90
57218;DHT22;43078;52.972;6.482;2023-02-11T01:50:46;6.70;99.90
57218;DHT22;43078;52.972;6.482;2023-02-11T01:53:12;6.60;99.90
57218;DHT22;43078;52.972;6.482;2023-02-11T01:55:57;6.60;99.90
57218;DHT22;43078;52.972;6.482;2023-02-11T01:58:43;6.60;99.90
57218;DHT22;43078;52.972;6.482;2023-02-11T02:01:12;6.60;99.90
57218;DHT22;43078;52.972;6.482;2023-02-11T02:03:41;6.60;99.90
57218;DHT22;43078;52.972;6.482;2023-02-11T02:06:18;6.60;99.90
57218;DHT22;43078;52.972;6.482;2023-02-11T02:11:16;6.60;99.90
57218;DHT22;43078;52.972;6.482;2023-02-11T02:13:41;6.60;99.90
57218;DHT22;43078;52.972;6.482;2023-02-11T02:16:12;6.60;99.90
57218;DHT22;43078;52.972;6.482;2023-02-11T02:35:33;6.60;99.90
57218;DHT22;43078;52.972;6.482;2023-02-11T02:40:40;6.60;99.90
57218;DHT22;43078;52.972;6.482;2023-02-11T02:43:09;6.60;99.90
57218;DHT22;43078;52.972;6.482;2023-02-11T02:45:35;6.70;99.90
57218;DHT22;43078;52.972;6.482;2023-02-11T02:48:00;6.70;99.90
57218;DHT22;43078;52.972;6.482;2023-02-11T02:50:30;6.70;99.90
57218;DHT22;43078;52.972;6.482;2023-02-11T02:53:24;6.70;99.90
57218;DHT22;43078;52.972;6.482;2023-02-11T02:56:05;6.70;99.90
57218;DHT22;43078;52.972;6.482;2023-02-11T03:01:27;6.70;99.90
57218;DHT22;43078;52.972;6.482;2023-02-11T03:04:10;6.70;99.90
57218;DHT22;43078;52.972;6.482;2023-02-11T03:09:36;6.70;99.90
57218;DHT22;43078;52.972;6.482;2023-02-11T03:12:05;6.70;99.90
57218;DHT22;43078;52.972;6.482;2023-02-11T03:14:35;6.70;99.90
57218;DHT22;43078;52.972;6.482;2023-02-11T03:17:04;6.80;99.90
57218;DHT22;43078;52.972;6.482;2023-02-11T03:19:34;6.80;99.90
57218;DHT22;43078;52.972;6.482;2023-02-11T03:22:02;6.80;99.90
57218;DHT22;43078;52.972;6.482;2023-02-11T03:24:33;6.80;99.90
57218;DHT22;43078;52.972;6.482;2023-02-11T03:27:18;6.80;99.90
57218;DHT22;43078;52.972;6.482;2023-02-11T03:32:29;6.90;99.90
57218;DHT22;43078;52.972;6.482;2023-02-11T03:34:58;6.80;99.90
57218;DHT22;43078;52.972;6.482;2023-02-11T03:42:35;6.90;99.90
57218;DHT22;43078;52.972;6.482;2023-02-11T03:45:07;6.90;99.90
57218;DHT22;43078;52.972;6.482;2023-02-11T03:47:35;7.00;99.90
57218;DHT22;43078;52.972;6.482;2023-02-11T03:50:05;7.00;99.90
57218;DHT22;43078;52.972;6.482;2023-02-11T03:52:33;7.00;99.90
57218;DHT22;43078;52.972;6.482;2023-02-11T03:55:02;7.00;99.90
57218;DHT22;43078;52.972;6.482;2023-02-11T03:57:30;7.00;99.90
57218;DHT22;43078;52.972;6.482;2023-02-11T03:59:59;7.00;99.90
57218;DHT22;43078;52.972;6.482;2023-02-11T04:02:30;7.00;99.90
57218;DHT22;43078;52.972;6.482;2023-02-11T04:04:56;7.00;99.90
57218;DHT22;43078;52.972;6.482;2023-02-11T04:07:22;7.00;99.90
57218;DHT22;43078;52.972;6.482;2023-02-11T04:09:48;7.10;99.90
57218;DHT22;43078;52.972;6.482;2023-02-11T04:12:14;7.10;99.90
57218;DHT22;43078;52.972;6.482;2023-02-11T04:14:39;7.10;99.90
57218;DHT22;43078;52.972;6.482;2023-02-11T04:17:05;7.10;99.90
57218;DHT22;43078;52.972;6.482;2023-02-11T04:19:31;7.10;99.90
57218;DHT22;43078;52.972;6.482;2023-02-11T04:21:56;7.10;99.90
57218;DHT22;43078;52.972;6.482;2023-02-11T04:24:22;7.10;99.90
57218;DHT22;43078;52.972;6.482;2023-02-11T04:26:48;7.10;99.90
57218;DHT22;43078;52.972;6.482;2023-02-11T04:29:16;7.10;99.90
57218;DHT22;43078;52.972;6.482;2023-02-11T04:31:42;7.10;99.90
57218;DHT22;43078;52.972;6.482;2023-02-11T04:34:07;7.10;99.90
57218;DHT22;43078;52.972;6.482;2023-02-11T04:36:38;7.10;99.90
57218;DHT22;43078;52.972;6.482;2023-02-11T04:39:07;7.10;99.90
57218;DHT22;43078;52.972;6.482;2023-02-11T04:41:32;7.10;99.90
57218;DHT22;43078;52.972;6.482;2023-02-11T04:43:58;7.10;99.90
57218;DHT22;43078;52.972;6.482;2023-02-11T04:46:24;7.10;99.90
57218;DHT22;43078;52.972;6.482;2023-02-11T04:48:49;7.10;99.90
57218;DHT22;43078;52.972;6.482;2023-02-11T04:51:15;7.10;99.90
57218;DHT22;43078;52.972;6.482;2023-02-11T04:53:41;7.10;99.90
57218;DHT22;43078;52.972;6.482;2023-02-11T04:56:07;7.10;99.90
57218;DHT22;43078;52.972;6.482;2023-02-11T04:58:32;7.10;99.90
57218;DHT22;43078;52.972;6.482;2023-02-11T05:01:08;7.10;99.90
57218;DHT22;43078;52.972;6.482;2023-02-11T05:03:35;7.10;99.90
57218;DHT22;43078;52.972;6.482;2023-02-11T05:06:01;7.10;99.90
57218;DHT22;43078;52.972;6.482;2023-02-11T05:08:26;7.10;99.90
57218;DHT22;43078;52.972;6.482;2023-02-11T05:10:52;7.10;99.90
57218;DHT22;43078;52.972;6.482;2023-02-11T05:13:21;7.10;99.90
57218;DHT22;43078;52.972;6.482;2023-02-11T05:15:47;7.10;99.90
57218;DHT22;43078;52.972;6.482;2023-02-11T05:18:12;7.10;99.90
57218;DHT22;43078;52.972;6.482;2023-02-11T05:20:43;7.10;99.90
57218;DHT22;43078;52.972;6.482;2023-02-11T05:23:11;7.10;99.90
57218;DHT22;43078;52.972;6.482;2023-02-11T05:25:37;7.10;99.90
57218;DHT22;43078;52.972;6.482;2023-02-11T05:35:04;7.10;99.90
57218;DHT22;43078;52.972;6.482;2023-02-11T05:38:14;7.10;99.90
57218;DHT22;43078;52.972;6.482;2023-02-11T05:40:40;7.10;99.90
57218;DHT22;43078;52.972;6.482;2023-02-11T05:43:06;7.10;99.90
57218;DHT22;43078;52.972;6.482;2023-02-11T05:45:32;7.10;99.90
57218;DHT22;43078;52.972;6.482;2023-02-11T05:47:58;7.00;99.90
57218;DHT22;43078;52.972;6.482;2023-02-11T05:50:23;7.10;99.90
57218;DHT22;43078;52.972;6.482;2023-02-11T05:52:49;7.10;99.90
57218;DHT22;43078;52.972;6.482;2023-02-11T05:55:15;7.00;99.90
57218;DHT22;43078;52.972;6.482;2023-02-11T05:57:49;7.10;99.90
57218;DHT22;43078;52.972;6.482;2023-02-11T06:00:15;7.00;99.90
57218;DHT22;43078;52.972;6.482;2023-02-11T06:02:41;7.00;99.90
57218;DHT22;43078;52.972;6.482;2023-02-11T06:05:07;7.10;99.90
57218;DHT22;43078;52.972;6.482;2023-02-11T06:07:34;7.00;99.90
57218;DHT22;43078;52.972;6.482;2023-02-11T06:10:00;7.00;99.90
57218;DHT22;43078;52.972;6.482;2023-02-11T06:12:25;7.00;99.90
57218;DHT22;43078;52.972;6.482;2023-02-11T06:14:51;7.00;99.90
57218;DHT22;43078;52.972;6.482;2023-02-11T06:17:17;7.00;99.90
57218;DHT22;43078;52.972;6.482;2023-02-11T06:19:43;7.00;99.90
57218;DHT22;43078;52.972;6.482;2023-02-11T06:22:20;7.00;99.90
57218;DHT22;43078;52.972;6.482;2023-02-11T06:24:46;7.00;99.90
57218;DHT22;43078;52.972;6.482;2023-02-11T06:27:11;7.00;99.90
57218;DHT22;43078;52.972;6.482;2023-02-11T06:29:45;7.00;99.90
57218;DHT22;43078;52.972;6.482;2023-02-11T06:32:13;7.00;99.90
57218;DHT22;43078;52.972;6.482;2023-02-11T06:34:39;7.00;99.90
57218;DHT22;43078;52.972;6.482;2023-02-11T06:37:05;7.00;99.90
57218;DHT22;43078;52.972;6.482;2023-02-11T06:39:31;7.00;99.90
57218;DHT22;43078;52.972;6.482;2023-02-11T06:41:57;7.00;99.90
57218;DHT22;43078;52.972;6.482;2023-02-11T06:44:23;7.00;99.90
57218;DHT22;43078;52.972;6.482;2023-02-11T06:46:48;7.00;99.90
57218;DHT22;43078;52.972;6.482;2023-02-11T06:49:14;7.00;99.90
57218;DHT22;43078;52.972;6.482;2023-02-11T06:51:40;7.00;99.90
57218;DHT22;43078;52.972;6.482;2023-02-11T06:54:10;7.10;99.90
57218;DHT22;43078;52.972;6.482;2023-02-11T06:56:41;7.00;99.90
57218;DHT22;43078;52.972;6.482;2023-02-11T06:59:07;7.00;99.90
57218;DHT22;43078;52.972;6.482;2023-02-11T07:01:33;7.00;99.90
57218;DHT22;43078;52.972;6.482;2023-02-11T07:03:58;7.00;99.90
57218;DHT22;43078;52.972;6.482;2023-02-11T07:06:26;7.00;99.90
57218;DHT22;43078;52.972;6.482;2023-02-11T07:08:53;7.00;99.90
57218;DHT22;43078;52.972;6.482;2023-02-11T07:11:22;7.00;99.90
57218;DHT22;43078;52.972;6.482;2023-02-11T07:13:51;7.00;99.90
57218;DHT22;43078;52.972;6.482;2023-02-11T07:16:18;7.00;99.90
57218;DHT22;43078;52.972;6.482;2023-02-11T07:18:47;7.00;99.90
57218;DHT22;43078;52.972;6.482;2023-02-11T07:21:16;7.00;99.90
57218;DHT22;43078;52.972;6.482;2023-02-11T07:23:42;7.00;99.90
57218;DHT22;43078;52.972;6.482;2023-02-11T07:26:10;7.00;99.90
57218;DHT22;43078;52.972;6.482;2023-02-11T07:28:36;7.00;99.90
57218;DHT22;43078;52.972;6.482;2023-02-11T07:31:07;7.00;99.90
57218;DHT22;43078;52.972;6.482;2023-02-11T07:33:34;7.00;99.90
57218;DHT22;43078;52.972;6.482;2023-02-11T07:36:00;7.10;99.90
57218;DHT22;43078;52.972;6.482;2023-02-11T07:38:29;7.00;99.90
57218;DHT22;43078;52.972;6.482;2023-02-11T07:40:59;7.00;99.90
57218;DHT22;43078;52.972;6.482;2023-02-11T07:43:25;7.10;99.90
57218;DHT22;43078;52.972;6.482;2023-02-11T07:45:50;7.00;99.90
57218;DHT22;43078;52.972;6.482;2023-02-11T07:48:16;7.10;99.90
57218;DHT22;43078;52.972;6.482;2023-02-11T07:50:41;7.00;99.90
57218;DHT22;43078;52.972;6.482;2023-02-11T07:53:07;7.00;99.90
57218;DHT22;43078;52.972;6.482;2023-02-11T07:55:32;7.00;99.90
57218;DHT22;43078;52.972;6.482;2023-02-11T07:58:01;7.10;99.90
57218;DHT22;43078;52.972;6.482;2023-02-11T08:00:27;7.00;99.90
57218;DHT22;43078;52.972;6.482;2023-02-11T08:03:01;7.00;99.90
57218;DHT22;43078;52.972;6.482;2023-02-11T08:05:28;7.00;99.90
57218;DHT22;43078;52.972;6.482;2023-02-11T08:07:54;7.00;99.90
57218;DHT22;43078;52.972;6.482;2023-02-11T08:10:20;7.10;99.90
57218;DHT22;43078;52.972;6.482;2023-02-11T08:12:52;7.10;99.90
57218;DHT22;43078;52.972;6.482;2023-02-11T08:15:19;7.10;99.90
57218;DHT22;43078;52.972;6.482;2023-02-11T08:17:45;7.00;99.90
57218;DHT22;43078;52.972;6.482;2023-02-11T08:20:10;7.10;99.90
57218;DHT22;43078;52.972;6.482;2023-02-11T08:22:36;7.10;99.90
57218;DHT22;43078;52.972;6.482;2023-02-11T08:25:02;7.10;99.90
57218;DHT22;43078;52.972;6.482;2023-02-11T08:27:27;7.10;99.90
57218;DHT22;43078;52.972;6.482;2023-02-11T08:29:53;7.10;99.90
57218;DHT22;43078;52.972;6.482;2023-02-11T08:32:22;7.10;99.90
57218;DHT22;43078;52.972;6.482;2023-02-11T08:34:53;7.10;99.90
57218;DHT22;43078;52.972;6.482;2023-02-11T08:37:21;7.20;99.90
57218;DHT22;43078;52.972;6.482;2023-02-11T08:39:47;7.10;99.90
57218;DHT22;43078;52.972;6.482;2023-02-11T08:42:13;7.20;99.90
57218;DHT22;43078;52.972;6.482;2023-02-11T08:45:06;7.20;99.90
57218;DHT22;43078;52.972;6.482;2023-02-11T08:47:38;7.20;99.90
57218;DHT22;43078;52.972;6.482;2023-02-11T08:50:04;7.20;99.90
57218;DHT22;43078;52.972;6.482;2023-02-11T08:52:30;7.20;99.90
57218;DHT22;43078;52.972;6.482;2023-02-11T08:54:56;7.30;99.90
57218;DHT22;43078;52.972;6.482;2023-02-11T09:07:27;7.30;99.90
57218;DHT22;43078;52.972;6.482;2023-02-11T09:10:06;7.30;99.90
57218;DHT22;43078;52.972;6.482;2023-02-11T09:12:44;7.40;99.90
57218;DHT22;43078;52.972;6.482;2023-02-11T09:15:15;7.40;99.90
57218;DHT22;43078;52.972;6.482;2023-02-11T09:17:52;7.50;99.90
57218;DHT22;43078;52.972;6.482;2023-02-11T09:20:18;7.50;99.90
57218;DHT22;43078;52.972;6.482;2023-02-11T09:22:47;7.50;99.90
57218;DHT22;43078;52.972;6.482;2023-02-11T09:25:15;7.60;99.90
57218;DHT22;43078;52.972;6.482;2023-02-11T09:27:53;7.60;99.90
57218;DHT22;43078;52.972;6.482;2023-02-11T09:30:20;7.70;99.90
57218;DHT22;43078;52.972;6.482;2023-02-11T09:33:03;7.70;99.90
57218;DHT22;43078;52.972;6.482;2023-02-11T09:38:25;7.70;99.90
57218;DHT22;43078;52.972;6.482;2023-02-11T09:50:53;7.90;99.90
57218;DHT22;43078;52.972;6.482;2023-02-11T09:53:42;7.90;99.90
57218;DHT22;43078;52.972;6.482;2023-02-11T09:56:32;7.90;99.90
57218;DHT22;43078;52.972;6.482;2023-02-11T09:59:16;8.00;99.90
57218;DHT22;43078;52.972;6.482;2023-02-11T10:22:58;8.30;99.90
57218;DHT22;43078;52.972;6.482;2023-02-11T10:37:55;8.50;99.90
57218;DHT22;43078;52.972;6.482;2023-02-11T10:43:15;8.60;99.90
57218;DHT22;43078;52.972;6.482;2023-02-11T10:45:50;8.60;99.90
57218;DHT22;43078;52.972;6.482;2023-02-11T10:48:39;8.60;99.90
57218;DHT22;43078;52.972;6.482;2023-02-11T10:56:37;8.80;99.90
57218;DHT22;43078;52.972;6.482;2023-02-11T11:01:59;8.80;99.90
57218;DHT22;43078;52.972;6.482;2023-02-11T11:04:34;8.80;99.90
57218;DHT22;43078;52.972;6.482;2023-02-11T11:07:20;8.80;99.90
57218;DHT22;43078;52.972;6.482;2023-02-11T11:10:03;8.90;99.90
57218;DHT22;43078;52.972;6.482;2023-02-11T11:17:35;8.90;99.90
57218;DHT22;43078;52.972;6.482;2023-02-11T11:25:35;9.00;99.90
57218;DHT22;43078;52.972;6.482;2023-02-11T11:28:02;9.00;99.90
57218;DHT22;43078;52.972;6.482;2023-02-11T11:30:33;9.10;99.90
57218;DHT22;43078;52.972;6.482;2023-02-11T11:33:03;9.10;99.90
57218;DHT22;43078;52.972;6.482;2023-02-11T11:35:33;9.10;99.90
57218;DHT22;43078;52.972;6.482;2023-02-11T11:38:01;9.20;99.90
57218;DHT22;43078;52.972;6.482;2023-02-11T11:40:34;9.20;99.90
57218;DHT22;43078;52.972;6.482;2023-02-11T11:45:29;9.20;99.90
57218;DHT22;43078;52.972;6.482;2023-02-11T11:48:08;9.30;99.90
57218;DHT22;43078;52.972;6.482;2023-02-11T11:50:44;9.30;99.90
57218;DHT22;43078;52.972;6.482;2023-02-11T11:56:28;9.30;99.90
57218;DHT22;43078;52.972;6.482;2023-02-11T11:58:55;9.30;99.90
57218;DHT22;43078;52.972;6.482;2023-02-11T12:07:54;9.40;99.90
57218;DHT22;43078;52.972;6.482;2023-02-11T12:11:03;9.40;99.90
57218;DHT22;43078;52.972;6.482;2023-02-11T12:26:20;9.50;99.90
57218;DHT22;43078;52.972;6.482;2023-02-11T12:32:16;9.60;99.90
57218;DHT22;43078;52.972;6.482;2023-02-11T12:37:47;9.60;99.90
57218;DHT22;43078;52.972;6.482;2023-02-11T12:40:42;9.70;99.90
57218;DHT22;43078;52.972;6.482;2023-02-11T12:46:15;9.70;99.90
57218;DHT22;43078;52.972;6.482;2023-02-11T12:55:01;9.80;99.90
57218;DHT22;43078;52.972;6.482;2023-02-11T12:57:32;9.80;99.90
57218;DHT22;43078;52.972;6.482;2023-02-11T13:05:42;9.80;99.90
57218;DHT22;43078;52.972;6.482;2023-02-11T13:10:47;9.90;99.90
57218;DHT22;43078;52.972;6.482;2023-02-11T13:13:32;9.90;99.90
57218;DHT22;43078;52.972;6.482;2023-02-11T13:24:06;10.00;99.90
57218;DHT22;43078;52.972;6.482;2023-02-11T13:33:03;10.00;99.90
57218;DHT22;43078;52.972;6.482;2023-02-11T13:35:36;10.10;99.90
57218;DHT22;43078;52.972;6.482;2023-02-11T13:38:04;10.10;99.90
57218;DHT22;43078;52.972;6.482;2023-02-11T13:40:36;10.10;99.90
57218;DHT22;43078;52.972;6.482;2023-02-11T13:43:17;10.20;99.90
57218;DHT22;43078;52.972;6.482;2023-02-11T13:45:49;10.10;99.90
57218;DHT22;43078;52.972;6.482;2023-02-11T13:48:30;10.20;99.90
57218;DHT22;43078;52.972;6.482;2023-02-11T13:51:05;10.10;99.90
57218;DHT22;43078;52.972;6.482;2023-02-11T13:53:49;10.20;99.90
57218;DHT22;43078;52.972;6.482;2023-02-11T13:56:33;10.20;99.90
57218;DHT22;43078;52.972;6.482;2023-02-11T14:02:04;10.20;99.90
57218;DHT22;43078;52.972;6.482;2023-02-11T14:15:25;10.20;99.90
57218;DHT22;43078;52.972;6.482;2023-02-11T14:17:51;10.10;99.90
57218;DHT22;43078;52.972;6.482;2023-02-11T14:20:35;10.10;99.90
57218;DHT22;43078;52.972;6.482;2023-02-11T14:23:01;10.10;99.90
57218;DHT22;43078;52.972;6.482;2023-02-11T14:25:39;10.20;99.90
57218;DHT22;43078;52.972;6.482;2023-02-11T14:28:23;10.20;99.90
57218;DHT22;43078;52.972;6.482;2023-02-11T14:31:13;10.20;99.90
57218;DHT22;43078;52.972;6.482;2023-02-11T14:34:06;10.20;99.90
57218;DHT22;43078;52.972;6.482;2023-02-11T14:36:45;10.20;99.90
57218;DHT22;43078;52.972;6.482;2023-02-11T14:41:42;10.20;99.90
57218;DHT22;43078;52.972;6.482;2023-02-11T14:44:24;10.10;99.90
57218;DHT22;43078;52.972;6.482;2023-02-11T14:46:53;10.20;99.90
57218;DHT22;43078;52.972;6.482;2023-02-11T14:51:50;10.20;99.90
57218;DHT22;43078;52.972;6.482;2023-02-11T14:54:19;10.20;99.90
57218;DHT22;43078;52.972;6.482;2023-02-11T14:59:30;10.20;99.90
57218;DHT22;43078;52.972;6.482;2023-02-11T15:01:56;10.20;99.90
57218;DHT22;43078;52.972;6.482;2023-02-11T15:04:29;10.20;99.90
57218;DHT22;43078;52.972;6.482;2023-02-11T15:06:56;10.20;99.90
57218;DHT22;43078;52.972;6.482;2023-02-11T15:09:41;10.20;99.90
57218;DHT22;43078;52.972;6.482;2023-02-11T15:12:21;10.20;99.90
57218;DHT22;43078;52.972;6.482;2023-02-11T15:14:50;10.20;99.90
57218;DHT22;43078;52.972;6.482;2023-02-11T15:17:21;10.20;99.90
57218;DHT22;43078;52.972;6.482;2023-02-11T15:19:54;10.20;99.90
57218;DHT22;43078;52.972;6.482;2023-02-11T15:22:28;10.20;99.90
57218;DHT22;43078;52.972;6.482;2023-02-11T15:27:26;10.20;99.90
57218;DHT22;43078;52.972;6.482;2023-02-11T15:29:52;10.10;99.90
57218;DHT22;43078;52.972;6.482;2023-02-11T15:32:24;10.10;99.90
57218;DHT22;43078;52.972;6.482;2023-02-11T15:34:51;10.20;99.90
57218;DHT22;43078;52.972;6.482;2023-02-11T15:37:25;10.10;99.90
57218;DHT22;43078;52.972;6.482;2023-02-11T15:39:52;10.10;99.90
57218;DHT22;43078;52.972;6.482;2023-02-11T15:44:45;10.00;99.90
57218;DHT22;43078;52.972;6.482;2023-02-11T15:47:12;10.10;99.90
57218;DHT22;43078;52.972;6.482;2023-02-11T15:49:44;10.00;99.90
57218;DHT22;43078;52.972;6.482;2023-02-11T15:52:11;10.00;99.90
57218;DHT22;43078;52.972;6.482;2023-02-11T15:54:45;10.00;99.90
57218;DHT22;43078;52.972;6.482;2023-02-11T15:57:11;10.00;99.90
57218;DHT22;43078;52.972;6.482;2023-02-11T15:59:39;10.00;99.90
57218;DHT22;43078;52.972;6.482;2023-02-11T16:02:08;10.00;99.90
57218;DHT22;43078;52.972;6.482;2023-02-11T16:04:35;10.00;99.90
57218;DHT22;43078;52.972;6.482;2023-02-11T16:07:01;10.00;99.90
57218;DHT22;43078;52.972;6.482;2023-02-11T16:09:33;10.00;99.90
57218;DHT22;43078;52.972;6.482;2023-02-11T16:12:02;9.90;99.90
57218;DHT22;43078;52.972;6.482;2023-02-11T16:17:24;9.90;99.90
57218;DHT22;43078;52.972;6.482;2023-02-11T16:19:53;9.90;99.90
57218;DHT22;43078;52.972;6.482;2023-02-11T16:22:24;9.90;99.90
57218;DHT22;43078;52.972;6.482;2023-02-11T16:24:52;9.90;99.90
57218;DHT22;43078;52.972;6.482;2023-02-11T16:31:31;9.80;99.90
57218;DHT22;43078;52.972;6.482;2023-02-11T16:34:06;9.80;99.90
57218;DHT22;43078;52.972;6.482;2023-02-11T16:37:30;9.80;99.90
57218;DHT22;43078;52.972;6.482;2023-02-11T16:40:10;9.80;99.90
57218;DHT22;43078;52.972;6.482;2023-02-11T16:42:39;9.70;99.90
57218;DHT22;43078;52.972;6.482;2023-02-11T16:45:40;9.70;99.90
57218;DHT22;43078;52.972;6.482;2023-02-11T16:48:32;9.80;99.90
57218;DHT22;43078;52.972;6.482;2023-02-11T16:51:52;9.70;99.90
57218;DHT22;43078;52.972;6.482;2023-02-11T16:54:21;9.70;99.90
57218;DHT22;43078;52.972;6.482;2023-02-11T17:00:55;9.70;99.90
57218;DHT22;43078;52.972;6.482;2023-02-11T17:09:04;9.60;99.90
57218;DHT22;43078;52.972;6.482;2023-02-11T17:11:36;9.60;99.90
57218;DHT22;43078;52.972;6.482;2023-02-11T17:14:05;9.60;99.90
57218;DHT22;43078;52.972;6.482;2023-02-11T17:16:43;9.60;99.90
57218;DHT22;43078;52.972;6.482;2023-02-11T17:23:19;9.60;99.90
57218;DHT22;43078;52.972;6.482;2023-02-11T17:25:59;9.50;99.90
57218;DHT22;43078;52.972;6.482;2023-02-11T17:28:25;9.50;99.90
57218;DHT22;43078;52.972;6.482;2023-02-11T17:31:14;9.50;99.90
57218;DHT22;43078;52.972;6.482;2023-02-11T17:33:43;9.50;99.90
57218;DHT22;43078;52.972;6.482;2023-02-11T17:36:27;9.50;99.90
57218;DHT22;43078;52.972;6.482;2023-02-11T17:39:04;9.50;99.90
57218;DHT22;43078;52.972;6.482;2023-02-11T17:41:30;9.50;99.90
57218;DHT22;43078;52.972;6.482;2023-02-11T17:43:59;9.40;99.90
57218;DHT22;43078;52.972;6.482;2023-02-11T17:46:27;9.40;99.90
57218;DHT22;43078;52.972;6.482;2023-02-11T17:48:54;9.40;99.90
57218;DHT22;43078;52.972;6.482;2023-02-11T17:53:53;9.40;99.90
57218;DHT22;43078;52.972;6.482;2023-02-11T17:56:26;9.40;99.90
57218;DHT22;43078;52.972;6.482;2023-02-11T17:58:52;9.40;99.90
57218;DHT22;43078;52.972;6.482;2023-02-11T18:01:18;9.40;99.90
57218;DHT22;43078;52.972;6.482;2023-02-11T18:03:47;9.30;99.90
57218;DHT22;43078;52.972;6.482;2023-02-11T18:06:12;9.30;99.90
57218;DHT22;43078;52.972;6.482;2023-02-11T18:08:38;9.30;99.90
57218;DHT22;43078;52.972;6.482;2023-02-11T18:11:08;9.30;99.90
57218;DHT22;43078;52.972;6.482;2023-02-11T18:13:34;9.20;99.90
57218;DHT22;43078;52.972;6.482;2023-02-11T18:16:04;9.20;99.90
57218;DHT22;43078;52.972;6.482;2023-02-11T18:18:30;9.20;99.90
57218;DHT22;43078;52.972;6.482;2023-02-11T18:21:00;9.20;99.90
57218;DHT22;43078;52.972;6.482;2023-02-11T18:23:30;9.20;99.90
57218;DHT22;43078;52.972;6.482;2023-02-11T18:25:56;9.20;99.90
57218;DHT22;43078;52.972;6.482;2023-02-11T18:28:22;9.20;99.90
57218;DHT22;43078;52.972;6.482;2023-02-11T18:30:48;9.10;99.90
57218;DHT22;43078;52.972;6.482;2023-02-11T18:33:20;9.10;99.90
57218;DHT22;43078;52.972;6.482;2023-02-11T18:35:46;9.10;99.90
57218;DHT22;43078;52.972;6.482;2023-02-11T18:40:58;9.10;99.90
57218;DHT22;43078;52.972;6.482;2023-02-11T18:43:33;9.00;99.90
57218;DHT22;43078;52.972;6.482;2023-02-11T18:46:14;9.10;99.90
57218;DHT22;43078;52.972;6.482;2023-02-11T18:48:40;9.10;99.90
57218;DHT22;43078;52.972;6.482;2023-02-11T18:51:16;9.00;99.90
57218;DHT22;43078;52.972;6.482;2023-02-11T18:53:45;9.00;99.90
57218;DHT22;43078;52.972;6.482;2023-02-11T18:56:18;9.00;99.90
57218;DHT22;43078;52.972;6.482;2023-02-11T18:58:45;9.00;99.90
57218;DHT22;43078;52.972;6.482;2023-02-11T19:01:12;9.00;99.90
57218;DHT22;43078;52.972;6.482;2023-02-11T19:03:38;9.00;99.90
57218;DHT22;43078;52.972;6.482;2023-02-11T19:06:04;9.00;99.90
57218;DHT22;43078;52.972;6.482;2023-02-11T19:08:30;8.90;99.90
57218;DHT22;43078;52.972;6.482;2023-02-11T19:10:56;8.90;99.90
57218;DHT22;43078;52.972;6.482;2023-02-11T19:13:21;8.90;99.90
57218;DHT22;43078;52.972;6.482;2023-02-11T19:15:47;8.90;99.90
57218;DHT22;43078;52.972;6.482;2023-02-11T19:18:13;8.90;99.90
57218;DHT22;43078;52.972;6.482;2023-02-11T19:20:43;8.90;99.90
57218;DHT22;43078;52.972;6.482;2023-02-11T19:23:09;8.90;99.90
57218;DHT22;43078;52.972;6.482;2023-02-11T19:25:35;8.90;99.90
57218;DHT22;43078;52.972;6.482;2023-02-11T19:28:01;8.90;99.90
57218;DHT22;43078;52.972;6.482;2023-02-11T19:30:27;8.90;99.90
57218;DHT22;43078;52.972;6.482;2023-02-11T19:32:56;8.90;99.90
57218;DHT22;43078;52.972;6.482;2023-02-11T19:35:24;8.90;99.90
57218;DHT22;43078;52.972;6.482;2023-02-11T19:37:50;8.90;99.90
57218;DHT22;43078;52.972;6.482;2023-02-11T19:40:16;8.90;99.90
57218;DHT22;43078;52.972;6.482;2023-02-11T19:42:42;8.80;99.90
57218;DHT22;43078;52.972;6.482;2023-02-11T19:45:08;8.80;99.90
57218;DHT22;43078;52.972;6.482;2023-02-11T19:47:34;8.80;99.90
57218;DHT22;43078;52.972;6.482;2023-02-11T19:50:00;8.80;99.90
57218;DHT22;43078;52.972;6.482;2023-02-11T19:52:26;8.80;99.90
57218;DHT22;43078;52.972;6.482;2023-02-11T19:54:52;8.80;99.90
57218;DHT22;43078;52.972;6.482;2023-02-11T19:57:17;8.80;99.90
57218;DHT22;43078;52.972;6.482;2023-02-11T19:59:43;8.70;99.90
57218;DHT22;43078;52.972;6.482;2023-02-11T20:02:10;8.70;99.90